createdAt,value
2024-05-09T00:04:24.268Z,10.7
2024-05-09T00:19:24.287Z,10.5
2024-05-09T00:34:24.374Z,10.2
2024-05-09T00:49:24.398Z,10.1
2024-05-09T01:04:24.325Z,10
2024-05-09T01:19:24.393Z,10.2
2024-05-09T01:34:24.262Z,10.1
2024-05-09T01:49:24.364Z,9.9
2024-05-09T02:04:24.341Z,9.7
2024-05-09T02:19:24.318Z,9.5
2024-05-09T02:34:24.343Z,9.6
2024-05-09T02:49:24.427Z,9.4
2024-05-09T03:04:24.390Z,9.3
2024-05-09T03:19:24.337Z,9.1
2024-05-09T03:34:24.292Z,8.9
2024-05-09T03:49:24.762Z,8.8
2024-05-09T04:04:24.341Z,8.6
2024-05-09T04:19:24.371Z,8.6
2024-05-09T04:34:24.337Z,8.7
2024-05-09T04:49:24.305Z,8.8
2024-05-09T05:04:24.299Z,9.2
2024-05-09T05:19:24.336Z,8.9
2024-05-09T05:34:24.271Z,8.8
2024-05-09T05:49:24.328Z,9.1
2024-05-09T06:04:24.298Z,9.4
2024-05-09T06:19:24.520Z,9.6
2024-05-09T06:34:24.334Z,10.2
2024-05-09T06:49:24.486Z,10.6
2024-05-09T07:04:24.394Z,10.8
2024-05-09T07:19:24.332Z,11.2
2024-05-09T07:34:24.316Z,11.6
2024-05-09T08:04:26.503Z,12.8
2024-05-09T08:19:24.319Z,12.8
2024-05-09T08:34:24.402Z,13.1
2024-05-09T08:49:24.358Z,13.2
2024-05-09T09:04:24.381Z,13.7
2024-05-09T09:19:24.360Z,14
2024-05-09T09:34:24.440Z,14.2
2024-05-09T09:49:24.317Z,14.6
2024-05-09T10:04:24.320Z,14.9
2024-05-09T10:19:24.391Z,15.3
2024-05-09T10:34:24.478Z,15.4
2024-05-09T10:49:24.433Z,15.9
2024-05-09T11:04:24.366Z,16.1
2024-05-09T11:19:24.387Z,16.7
2024-05-09T11:34:24.374Z,16.9
2024-05-09T11:49:26.769Z,17.9
2024-05-09T12:04:24.459Z,17.5
2024-05-09T12:19:24.335Z,17.9
2024-05-09T12:34:24.309Z,18.3
2024-05-09T12:49:24.423Z,18.2
2024-05-09T13:04:24.331Z,18.9
2024-05-09T13:19:24.318Z,18.9
2024-05-09T13:34:24.328Z,19.3
2024-05-09T13:49:24.375Z,20.3
2024-05-09T14:04:24.571Z,21.4
2024-05-09T14:19:24.295Z,22.6
2024-05-09T14:34:24.494Z,21.9
2024-05-09T14:49:24.347Z,21.8
2024-05-09T15:04:24.439Z,22.1
2024-05-09T15:19:24.429Z,21.5
2024-05-09T15:34:24.329Z,21.2
2024-05-09T15:49:24.420Z,21
2024-05-09T16:04:24.400Z,20.2
2024-05-09T16:19:24.312Z,20
2024-05-09T16:34:24.330Z,19.8
2024-05-09T16:49:24.316Z,19.8
2024-05-09T17:04:24.424Z,19.4
2024-05-09T17:19:24.442Z,19.4
2024-05-09T17:34:24.329Z,19.1
2024-05-09T17:49:24.332Z,19.1
2024-05-09T18:04:24.328Z,19.1
2024-05-09T18:19:24.347Z,19
2024-05-09T18:34:24.316Z,18.5
2024-05-09T18:49:24.430Z,18.1
2024-05-09T19:04:24.386Z,17.6
2024-05-09T19:19:24.456Z,17
2024-05-09T19:34:24.313Z,16.6
2024-05-09T19:49:24.401Z,16.3
2024-05-09T20:04:24.337Z,16.1
2024-05-09T20:19:24.388Z,15.9
2024-05-09T20:34:24.427Z,15.7
2024-05-09T20:49:24.444Z,15.4
2024-05-09T21:04:24.362Z,15.2
2024-05-09T21:19:24.284Z,15
2024-05-09T21:34:24.344Z,14.8
2024-05-09T21:49:24.317Z,14.6
2024-05-09T22:04:24.367Z,14.4
2024-05-09T22:19:24.337Z,14.2
2024-05-09T22:34:24.672Z,14.1
2024-05-09T22:49:24.304Z,13.8
2024-05-09T23:04:24.286Z,13.6
2024-05-09T23:19:24.300Z,13.5
2024-05-09T23:34:24.520Z,13.3
2024-05-09T23:49:24.298Z,13.2
